sensor_id;sensor_type;location;lat;lon;timestamp;P1;durP1;ratioP1;P2;durP2;ratioP2
7162;SDS011;3623;47.098;15.446;2022-09-01T00:00:05;15.00;;;13.50;;
7162;SDS011;3623;47.098;15.446;2022-09-01T00:02:35;15.97;;;14.57;;
7162;SDS011;3623;47.098;15.446;2022-09-01T00:05:03;16.00;;;14.60;;
7162;SDS011;3623;47.098;15.446;2022-09-01T00:07:31;15.03;;;13.63;;
7162;SDS011;3623;47.098;15.446;2022-09-01T00:10:00;16.67;;;14.80;;
7162;SDS011;3623;47.098;15.446;2022-09-01T00:12:28;17.03;;;15.37;;
7162;SDS011;3623;47.098;15.446;2022-09-01T00:14:57;16.80;;;14.97;;
7162;SDS011;3623;47.098;15.446;2022-09-01T00:17:24;18.50;;;16.50;;
7162;SDS011;3623;47.098;15.446;2022-09-01T00:19:52;15.87;;;14.27;;
7162;SDS011;3623;47.098;15.446;2022-09-01T00:22:19;14.53;;;13.20;;
7162;SDS011;3623;47.098;15.446;2022-09-01T00:24:47;17.90;;;16.30;;
7162;SDS011;3623;47.098;15.446;2022-09-01T00:27:14;16.70;;;14.77;;
7162;SDS011;3623;47.098;15.446;2022-09-01T00:29:42;15.27;;;13.93;;
7162;SDS011;3623;47.098;15.446;2022-09-01T00:32:11;15.30;;;14.10;;
7162;SDS011;3623;47.098;15.446;2022-09-01T00:34:38;14.93;;;13.73;;
7162;SDS011;3623;47.098;15.446;2022-09-01T00:37:05;16.60;;;15.27;;
7162;SDS011;3623;47.098;15.446;2022-09-01T00:39:32;13.50;;;12.40;;
7162;SDS011;3623;47.098;15.446;2022-09-01T00:41:59;15.20;;;13.80;;
7162;SDS011;3623;47.098;15.446;2022-09-01T00:44:27;14.03;;;12.80;;
7162;SDS011;3623;47.098;15.446;2022-09-01T00:46:54;16.80;;;15.30;;
7162;SDS011;3623;47.098;15.446;2022-09-01T00:49:25;16.30;;;14.70;;
7162;SDS011;3623;47.098;15.446;2022-09-01T00:51:56;14.67;;;13.10;;
7162;SDS011;3623;47.098;15.446;2022-09-01T00:54:28;14.77;;;13.40;;
7162;SDS011;3623;47.098;15.446;2022-09-01T00:56:58;13.10;;;11.80;;
7162;SDS011;3623;47.098;15.446;2022-09-01T00:59:26;14.00;;;12.63;;
7162;SDS011;3623;47.098;15.446;2022-09-01T01:01:54;14.87;;;13.57;;
7162;SDS011;3623;47.098;15.446;2022-09-01T01:04:24;14.33;;;12.83;;
7162;SDS011;3623;47.098;15.446;2022-09-01T01:06:53;16.50;;;14.90;;
7162;SDS011;3623;47.098;15.446;2022-09-01T01:09:27;15.10;;;13.70;;
7162;SDS011;3623;47.098;15.446;2022-09-01T01:11:57;14.67;;;13.20;;
7162;SDS011;3623;47.098;15.446;2022-09-01T01:14:25;13.00;;;11.67;;
7162;SDS011;3623;47.098;15.446;2022-09-01T01:16:55;15.40;;;14.00;;
7162;SDS011;3623;47.098;15.446;2022-09-01T01:19:26;13.93;;;12.70;;
7162;SDS011;3623;47.098;15.446;2022-09-01T01:22:21;12.47;;;11.47;;
7162;SDS011;3623;47.098;15.446;2022-09-01T01:25:13;15.13;;;13.83;;
7162;SDS011;3623;47.098;15.446;2022-09-01T01:27:43;12.43;;;11.33;;
7162;SDS011;3623;47.098;15.446;2022-09-01T01:30:11;15.13;;;13.63;;
7162;SDS011;3623;47.098;15.446;2022-09-01T01:32:41;13.70;;;12.57;;
7162;SDS011;3623;47.098;15.446;2022-09-01T01:35:10;11.90;;;10.80;;
7162;SDS011;3623;47.098;15.446;2022-09-01T01:37:39;14.50;;;13.10;;
7162;SDS011;3623;47.098;15.446;2022-09-01T01:40:15;19.63;;;11.80;;
7162;SDS011;3623;47.098;15.446;2022-09-01T01:42:44;14.90;;;12.67;;
7162;SDS011;3623;47.098;15.446;2022-09-01T01:45:13;14.20;;;12.77;;
7162;SDS011;3623;47.098;15.446;2022-09-01T01:47:42;11.90;;;10.90;;
7162;SDS011;3623;47.098;15.446;2022-09-01T01:50:17;9.97;;;9.03;;
7162;SDS011;3623;47.098;15.446;2022-09-01T01:52:45;9.43;;;8.50;;
7162;SDS011;3623;47.098;15.446;2022-09-01T01:55:12;8.70;;;7.87;;
7162;SDS011;3623;47.098;15.446;2022-09-01T01:57:43;9.40;;;8.60;;
7162;SDS011;3623;47.098;15.446;2022-09-01T02:00:15;7.20;;;6.73;;
7162;SDS011;3623;47.098;15.446;2022-09-01T02:02:45;8.23;;;7.50;;
7162;SDS011;3623;47.098;15.446;2022-09-01T02:05:17;8.10;;;7.30;;
7162;SDS011;3623;47.098;15.446;2022-09-01T02:07:52;9.47;;;8.67;;
7162;SDS011;3623;47.098;15.446;2022-09-01T02:10:27;9.40;;;8.70;;
7162;SDS011;3623;47.098;15.446;2022-09-01T02:12:55;10.87;;;10.07;;
7162;SDS011;3623;47.098;15.446;2022-09-01T02:15:28;9.93;;;9.00;;
7162;SDS011;3623;47.098;15.446;2022-09-01T02:17:57;10.63;;;9.73;;
7162;SDS011;3623;47.098;15.446;2022-09-01T02:20:24;9.23;;;8.40;;
7162;SDS011;3623;47.098;15.446;2022-09-01T02:22:53;10.03;;;9.03;;
7162;SDS011;3623;47.098;15.446;2022-09-01T02:25:20;10.60;;;9.30;;
7162;SDS011;3623;47.098;15.446;2022-09-01T02:27:49;8.77;;;8.07;;
7162;SDS011;3623;47.098;15.446;2022-09-01T02:30:19;10.40;;;9.50;;
7162;SDS011;3623;47.098;15.446;2022-09-01T02:32:49;8.93;;;8.33;;
7162;SDS011;3623;47.098;15.446;2022-09-01T02:35:16;8.27;;;7.63;;
7162;SDS011;3623;47.098;15.446;2022-09-01T02:37:43;8.50;;;7.80;;
7162;SDS011;3623;47.098;15.446;2022-09-01T02:40:13;7.60;;;7.10;;
7162;SDS011;3623;47.098;15.446;2022-09-01T02:42:40;8.30;;;7.50;;
7162;SDS011;3623;47.098;15.446;2022-09-01T02:45:12;9.07;;;8.37;;
7162;SDS011;3623;47.098;15.446;2022-09-01T02:47:42;8.63;;;7.83;;
7162;SDS011;3623;47.098;15.446;2022-09-01T02:50:11;7.83;;;6.67;;
7162;SDS011;3623;47.098;15.446;2022-09-01T02:52:41;8.77;;;8.13;;
7162;SDS011;3623;47.098;15.446;2022-09-01T02:55:09;8.13;;;7.50;;
7162;SDS011;3623;47.098;15.446;2022-09-01T02:57:37;8.90;;;8.10;;
7162;SDS011;3623;47.098;15.446;2022-09-01T03:00:05;8.80;;;8.00;;
7162;SDS011;3623;47.098;15.446;2022-09-01T03:02:48;10.10;;;9.27;;
7162;SDS011;3623;47.098;15.446;2022-09-01T03:05:17;10.00;;;9.13;;
7162;SDS011;3623;47.098;15.446;2022-09-01T03:07:50;8.37;;;7.77;;
7162;SDS011;3623;47.098;15.446;2022-09-01T03:10:24;8.57;;;7.97;;
7162;SDS011;3623;47.098;15.446;2022-09-01T03:12:56;8.93;;;8.23;;
7162;SDS011;3623;47.098;15.446;2022-09-01T03:15:24;8.73;;;8.03;;
7162;SDS011;3623;47.098;15.446;2022-09-01T03:17:53;8.77;;;8.03;;
7162;SDS011;3623;47.098;15.446;2022-09-01T03:20:24;9.40;;;8.30;;
7162;SDS011;3623;47.098;15.446;2022-09-01T03:22:51;9.70;;;8.90;;
7162;SDS011;3623;47.098;15.446;2022-09-01T03:25:21;8.73;;;8.03;;
7162;SDS011;3623;47.098;15.446;2022-09-01T03:27:49;9.40;;;8.70;;
7162;SDS011;3623;47.098;15.446;2022-09-01T03:30:17;8.90;;;8.13;;
7162;SDS011;3623;47.098;15.446;2022-09-01T03:32:45;9.60;;;8.80;;
7162;SDS011;3623;47.098;15.446;2022-09-01T03:35:14;10.10;;;9.20;;
7162;SDS011;3623;47.098;15.446;2022-09-01T03:37:41;9.27;;;8.47;;
7162;SDS011;3623;47.098;15.446;2022-09-01T03:40:10;10.27;;;9.50;;
7162;SDS011;3623;47.098;15.446;2022-09-01T03:42:38;9.83;;;9.03;;
7162;SDS011;3623;47.098;15.446;2022-09-01T03:45:07;9.83;;;9.13;;
7162;SDS011;3623;47.098;15.446;2022-09-01T03:47:37;9.57;;;8.67;;
7162;SDS011;3623;47.098;15.446;2022-09-01T03:50:05;8.47;;;7.53;;
7162;SDS011;3623;47.098;15.446;2022-09-01T03:52:37;8.73;;;8.03;;
7162;SDS011;3623;47.098;15.446;2022-09-01T03:55:05;9.30;;;8.53;;
7162;SDS011;3623;47.098;15.446;2022-09-01T03:57:34;9.50;;;8.70;;
7162;SDS011;3623;47.098;15.446;2022-09-01T04:00:07;9.73;;;8.03;;
7162;SDS011;3623;47.098;15.446;2022-09-01T04:02:48;8.73;;;8.13;;
7162;SDS011;3623;47.098;15.446;2022-09-01T04:05:21;8.40;;;7.80;;
7162;SDS011;3623;47.098;15.446;2022-09-01T04:07:50;9.47;;;8.60;;
7162;SDS011;3623;47.098;15.446;2022-09-01T04:10:17;10.20;;;9.40;;
7162;SDS011;3623;47.098;15.446;2022-09-01T04:12:48;9.53;;;8.83;;
7162;SDS011;3623;47.098;15.446;2022-09-01T04:15:16;9.40;;;8.70;;
7162;SDS011;3623;47.098;15.446;2022-09-01T04:17:43;9.53;;;8.83;;
7162;SDS011;3623;47.098;15.446;2022-09-01T04:20:28;9.43;;;8.73;;
7162;SDS011;3623;47.098;15.446;2022-09-01T04:23:05;8.17;;;7.57;;
7162;SDS011;3623;47.098;15.446;2022-09-01T04:25:35;9.63;;;8.80;;
7162;SDS011;3623;47.098;15.446;2022-09-01T04:28:03;10.03;;;9.20;;
7162;SDS011;3623;47.098;15.446;2022-09-01T04:30:37;10.60;;;9.80;;
7162;SDS011;3623;47.098;15.446;2022-09-01T04:33:05;10.00;;;8.93;;
7162;SDS011;3623;47.098;15.446;2022-09-01T04:35:36;10.60;;;9.60;;
7162;SDS011;3623;47.098;15.446;2022-09-01T04:38:05;9.37;;;8.67;;
7162;SDS011;3623;47.098;15.446;2022-09-01T04:40:36;9.80;;;8.83;;
7162;SDS011;3623;47.098;15.446;2022-09-01T04:43:04;9.53;;;8.73;;
7162;SDS011;3623;47.098;15.446;2022-09-01T04:45:33;9.87;;;9.17;;
7162;SDS011;3623;47.098;15.446;2022-09-01T04:48:00;10.77;;;9.70;;
7162;SDS011;3623;47.098;15.446;2022-09-01T04:50:28;10.27;;;9.57;;
7162;SDS011;3623;47.098;15.446;2022-09-01T04:52:57;10.50;;;9.43;;
7162;SDS011;3623;47.098;15.446;2022-09-01T04:55:26;10.17;;;9.47;;
7162;SDS011;3623;47.098;15.446;2022-09-01T04:57:55;11.07;;;10.27;;
7162;SDS011;3623;47.098;15.446;2022-09-01T05:00:23;14.33;;;11.53;;
7162;SDS011;3623;47.098;15.446;2022-09-01T05:02:52;9.43;;;8.63;;
7162;SDS011;3623;47.098;15.446;2022-09-01T05:05:25;9.83;;;9.13;;
7162;SDS011;3623;47.098;15.446;2022-09-01T05:07:52;10.70;;;9.87;;
7162;SDS011;3623;47.098;15.446;2022-09-01T05:10:19;10.35;;;9.57;;
7162;SDS011;3623;47.098;15.446;2022-09-01T05:12:54;10.57;;;9.60;;
7162;SDS011;3623;47.098;15.446;2022-09-01T05:15:22;10.20;;;9.50;;
7162;SDS011;3623;47.098;15.446;2022-09-01T05:17:49;11.10;;;10.20;;
7162;SDS011;3623;47.098;15.446;2022-09-01T05:20:20;11.90;;;10.90;;
7162;SDS011;3623;47.098;15.446;2022-09-01T05:22:49;12.07;;;11.13;;
7162;SDS011;3623;47.098;15.446;2022-09-01T05:25:20;11.33;;;10.23;;
7162;SDS011;3623;47.098;15.446;2022-09-01T05:27:47;11.77;;;10.67;;
7162;SDS011;3623;47.098;15.446;2022-09-01T05:30:17;11.20;;;10.40;;
7162;SDS011;3623;47.098;15.446;2022-09-01T05:32:44;10.73;;;9.93;;
7162;SDS011;3623;47.098;15.446;2022-09-01T05:35:15;11.23;;;9.83;;
7162;SDS011;3623;47.098;15.446;2022-09-01T05:37:43;8.60;;;8.00;;
7162;SDS011;3623;47.098;15.446;2022-09-01T05:40:10;9.20;;;8.50;;
7162;SDS011;3623;47.098;15.446;2022-09-01T05:42:40;10.60;;;9.30;;
7162;SDS011;3623;47.098;15.446;2022-09-01T05:45:08;8.83;;;8.13;;
7162;SDS011;3623;47.098;15.446;2022-09-01T05:47:38;11.37;;;9.23;;
7162;SDS011;3623;47.098;15.446;2022-09-01T05:50:06;9.73;;;8.93;;
7162;SDS011;3623;47.098;15.446;2022-09-01T05:52:35;9.00;;;8.40;;
7162;SDS011;3623;47.098;15.446;2022-09-01T05:55:04;9.63;;;8.73;;
7162;SDS011;3623;47.098;15.446;2022-09-01T05:57:33;9.33;;;8.73;;
7162;SDS011;3623;47.098;15.446;2022-09-01T06:00:02;9.97;;;8.87;;
7162;SDS011;3623;47.098;15.446;2022-09-01T06:02:35;10.80;;;8.57;;
7162;SDS011;3623;47.098;15.446;2022-09-01T06:05:05;8.67;;;7.97;;
7162;SDS011;3623;47.098;15.446;2022-09-01T06:07:33;9.07;;;8.47;;
7162;SDS011;3623;47.098;15.446;2022-09-01T06:10:03;9.60;;;8.67;;
7162;SDS011;3623;47.098;15.446;2022-09-01T06:12:31;7.90;;;7.30;;
7162;SDS011;3623;47.098;15.446;2022-09-01T06:14:58;8.37;;;7.80;;
7162;SDS011;3623;47.098;15.446;2022-09-01T06:17:26;7.73;;;7.23;;
7162;SDS011;3623;47.098;15.446;2022-09-01T06:19:55;8.97;;;8.30;;
7162;SDS011;3623;47.098;15.446;2022-09-01T06:22:24;7.97;;;7.30;;
7162;SDS011;3623;47.098;15.446;2022-09-01T06:24:53;8.80;;;7.70;;
7162;SDS011;3623;47.098;15.446;2022-09-01T06:27:21;7.90;;;7.40;;
7162;SDS011;3623;47.098;15.446;2022-09-01T06:29:48;7.70;;;7.20;;
7162;SDS011;3623;47.098;15.446;2022-09-01T06:32:17;10.27;;;8.20;;
7162;SDS011;3623;47.098;15.446;2022-09-01T06:34:44;7.57;;;7.13;;
7162;SDS011;3623;47.098;15.446;2022-09-01T06:37:15;7.43;;;6.83;;
7162;SDS011;3623;47.098;15.446;2022-09-01T06:39:48;6.73;;;6.30;;
7162;SDS011;3623;47.098;15.446;2022-09-01T06:42:16;6.93;;;6.27;;
7162;SDS011;3623;47.098;15.446;2022-09-01T06:44:44;5.87;;;5.47;;
7162;SDS011;3623;47.098;15.446;2022-09-01T06:47:11;5.90;;;5.40;;
7162;SDS011;3623;47.098;15.446;2022-09-01T06:49:39;5.70;;;5.40;;
7162;SDS011;3623;47.098;15.446;2022-09-01T06:52:06;4.80;;;4.40;;
7162;SDS011;3623;47.098;15.446;2022-09-01T06:54:35;8.70;;;5.70;;
7162;SDS011;3623;47.098;15.446;2022-09-01T06:57:06;5.57;;;5.20;;
7162;SDS011;3623;47.098;15.446;2022-09-01T06:59:33;5.70;;;5.40;;
7162;SDS011;3623;47.098;15.446;2022-09-01T07:02:01;5.93;;;5.43;;
7162;SDS011;3623;47.098;15.446;2022-09-01T07:04:28;6.40;;;5.50;;
7162;SDS011;3623;47.098;15.446;2022-09-01T07:06:56;5.63;;;5.00;;
7162;SDS011;3623;47.098;15.446;2022-09-01T07:09:24;5.30;;;5.00;;
7162;SDS011;3623;47.098;15.446;2022-09-01T07:11:51;4.67;;;4.30;;
7162;SDS011;3623;47.098;15.446;2022-09-01T07:14:21;4.60;;;4.30;;
7162;SDS011;3623;47.098;15.446;2022-09-01T07:16:49;4.57;;;4.27;;
7162;SDS011;3623;47.098;15.446;2022-09-01T07:19:16;4.70;;;4.30;;
7162;SDS011;3623;47.098;15.446;2022-09-01T07:21:43;4.80;;;4.60;;
7162;SDS011;3623;47.098;15.446;2022-09-01T07:24:11;4.20;;;3.93;;
7162;SDS011;3623;47.098;15.446;2022-09-01T07:26:40;4.00;;;3.70;;
7162;SDS011;3623;47.098;15.446;2022-09-01T07:29:08;4.53;;;4.23;;
7162;SDS011;3623;47.098;15.446;2022-09-01T07:31:37;4.30;;;4.10;;
7162;SDS011;3623;47.098;15.446;2022-09-01T07:34:08;4.10;;;3.80;;
7162;SDS011;3623;47.098;15.446;2022-09-01T07:36:38;4.70;;;4.40;;
7162;SDS011;3623;47.098;15.446;2022-09-01T07:39:09;4.40;;;4.10;;
7162;SDS011;3623;47.098;15.446;2022-09-01T07:41:38;4.13;;;3.93;;
7162;SDS011;3623;47.098;15.446;2022-09-01T07:44:07;4.00;;;3.70;;
7162;SDS011;3623;47.098;15.446;2022-09-01T07:46:39;3.80;;;3.60;;
7162;SDS011;3623;47.098;15.446;2022-09-01T07:49:07;3.47;;;3.27;;
7162;SDS011;3623;47.098;15.446;2022-09-01T07:51:34;4.60;;;3.50;;
7162;SDS011;3623;47.098;15.446;2022-09-01T07:54:02;3.93;;;3.73;;
7162;SDS011;3623;47.098;15.446;2022-09-01T07:56:29;5.23;;;3.33;;
7162;SDS011;3623;47.098;15.446;2022-09-01T07:58:57;3.53;;;3.30;;
7162;SDS011;3623;47.098;15.446;2022-09-01T08:01:26;6.10;;;4.30;;
7162;SDS011;3623;47.098;15.446;2022-09-01T08:03:55;4.00;;;3.70;;
7162;SDS011;3623;47.098;15.446;2022-09-01T08:06:26;3.80;;;3.50;;
7162;SDS011;3623;47.098;15.446;2022-09-01T08:08:56;4.17;;;3.83;;
7162;SDS011;3623;47.098;15.446;2022-09-01T08:11:25;4.40;;;4.00;;
7162;SDS011;3623;47.098;15.446;2022-09-01T08:13:54;4.90;;;4.50;;
7162;SDS011;3623;47.098;15.446;2022-09-01T08:16:23;4.60;;;3.80;;
7162;SDS011;3623;47.098;15.446;2022-09-01T08:18:50;4.03;;;3.83;;
7162;SDS011;3623;47.098;15.446;2022-09-01T08:21:20;7.63;;;4.30;;
7162;SDS011;3623;47.098;15.446;2022-09-01T08:23:48;4.33;;;3.93;;
7162;SDS011;3623;47.098;15.446;2022-09-01T08:26:16;4.20;;;3.87;;
7162;SDS011;3623;47.098;15.446;2022-09-01T08:28:45;2.90;;;2.70;;
7162;SDS011;3623;47.098;15.446;2022-09-01T08:31:15;4.83;;;3.83;;
7162;SDS011;3623;47.098;15.446;2022-09-01T08:33:45;2.53;;;2.43;;
7162;SDS011;3623;47.098;15.446;2022-09-01T08:36:14;3.07;;;2.87;;
7162;SDS011;3623;47.098;15.446;2022-09-01T08:38:43;2.77;;;2.57;;
7162;SDS011;3623;47.098;15.446;2022-09-01T08:41:15;2.97;;;2.87;;
7162;SDS011;3623;47.098;15.446;2022-09-01T08:43:57;2.97;;;2.77;;
7162;SDS011;3623;47.098;15.446;2022-09-01T08:46:30;2.73;;;2.53;;
7162;SDS011;3623;47.098;15.446;2022-09-01T08:49:00;2.67;;;2.53;;
7162;SDS011;3623;47.098;15.446;2022-09-01T08:51:34;3.27;;;3.07;;
7162;SDS011;3623;47.098;15.446;2022-09-01T08:54:09;2.43;;;2.33;;
7162;SDS011;3623;47.098;15.446;2022-09-01T08:56:46;3.13;;;2.80;;
7162;SDS011;3623;47.098;15.446;2022-09-01T08:59:17;3.47;;;3.00;;
7162;SDS011;3623;47.098;15.446;2022-09-01T09:01:47;2.70;;;2.50;;
7162;SDS011;3623;47.098;15.446;2022-09-01T09:04:27;2.77;;;2.67;;
7162;SDS011;3623;47.098;15.446;2022-09-01T09:07:12;2.33;;;2.23;;
7162;SDS011;3623;47.098;15.446;2022-09-01T09:09:50;2.80;;;2.63;;
7162;SDS011;3623;47.098;15.446;2022-09-01T09:12:28;2.33;;;2.13;;
7162;SDS011;3623;47.098;15.446;2022-09-01T09:15:13;2.77;;;2.67;;
7162;SDS011;3623;47.098;15.446;2022-09-01T09:17:48;3.40;;;3.20;;
7162;SDS011;3623;47.098;15.446;2022-09-01T09:20:23;3.17;;;2.87;;
7162;SDS011;3623;47.098;15.446;2022-09-01T09:22:51;2.90;;;2.80;;
7162;SDS011;3623;47.098;15.446;2022-09-01T09:25:22;3.30;;;3.10;;
7162;SDS011;3623;47.098;15.446;2022-09-01T09:27:49;2.70;;;2.60;;
7162;SDS011;3623;47.098;15.446;2022-09-01T09:30:19;2.87;;;2.77;;
7162;SDS011;3623;47.098;15.446;2022-09-01T09:32:49;14.57;;;3.10;;
7162;SDS011;3623;47.098;15.446;2022-09-01T09:35:22;3.47;;;3.27;;
7162;SDS011;3623;47.098;15.446;2022-09-01T09:37:52;4.00;;;3.70;;
7162;SDS011;3623;47.098;15.446;2022-09-01T09:40:20;2.80;;;2.70;;
7162;SDS011;3623;47.098;15.446;2022-09-01T09:43:03;5.17;;;2.40;;
7162;SDS011;3623;47.098;15.446;2022-09-01T09:45:33;2.87;;;2.73;;
7162;SDS011;3623;47.098;15.446;2022-09-01T09:48:07;2.80;;;2.13;;
7162;SDS011;3623;47.098;15.446;2022-09-01T09:50:37;3.83;;;2.37;;
7162;SDS011;3623;47.098;15.446;2022-09-01T09:53:09;2.60;;;2.40;;
7162;SDS011;3623;47.098;15.446;2022-09-01T09:55:54;2.63;;;2.47;;
7162;SDS011;3623;47.098;15.446;2022-09-01T09:58:25;2.80;;;2.60;;
7162;SDS011;3623;47.098;15.446;2022-09-01T10:01:04;2.80;;;2.60;;
7162;SDS011;3623;47.098;15.446;2022-09-01T10:03:40;2.70;;;2.60;;
7162;SDS011;3623;47.098;15.446;2022-09-01T10:06:10;2.00;;;1.90;;
7162;SDS011;3623;47.098;15.446;2022-09-01T10:08:40;2.47;;;2.27;;
7162;SDS011;3623;47.098;15.446;2022-09-01T10:11:25;2.50;;;1.90;;
7162;SDS011;3623;47.098;15.446;2022-09-01T10:13:56;2.10;;;2.00;;
7162;SDS011;3623;47.098;15.446;2022-09-01T10:16:25;2.30;;;2.20;;
7162;SDS011;3623;47.098;15.446;2022-09-01T10:18:57;3.40;;;3.20;;
7162;SDS011;3623;47.098;15.446;2022-09-01T10:21:27;2.73;;;2.63;;
7162;SDS011;3623;47.098;15.446;2022-09-01T10:23:58;3.50;;;2.50;;
7162;SDS011;3623;47.098;15.446;2022-09-01T10:26:31;3.47;;;2.17;;
7162;SDS011;3623;47.098;15.446;2022-09-01T10:29:05;1.80;;;1.70;;
7162;SDS011;3623;47.098;15.446;2022-09-01T10:31:38;2.07;;;1.97;;
7162;SDS011;3623;47.098;15.446;2022-09-01T10:34:06;2.37;;;2.27;;
7162;SDS011;3623;47.098;15.446;2022-09-01T10:36:39;2.57;;;2.37;;
7162;SDS011;3623;47.098;15.446;2022-09-01T10:39:13;5.17;;;2.30;;
7162;SDS011;3623;47.098;15.446;2022-09-01T10:41:44;2.40;;;2.20;;
7162;SDS011;3623;47.098;15.446;2022-09-01T10:44:17;3.10;;;1.80;;
7162;SDS011;3623;47.098;15.446;2022-09-01T10:46:48;2.03;;;1.93;;
7162;SDS011;3623;47.098;15.446;2022-09-01T10:55:24;2.10;;;1.90;;
7162;SDS011;3623;47.098;15.446;2022-09-01T10:57:58;1.73;;;1.63;;
7162;SDS011;3623;47.098;15.446;2022-09-01T11:00:44;2.03;;;1.60;;
7162;SDS011;3623;47.098;15.446;2022-09-01T11:09:30;3.70;;;2.20;;
7162;SDS011;3623;47.098;15.446;2022-09-01T11:14:57;5.93;;;2.10;;
7162;SDS011;3623;47.098;15.446;2022-09-01T11:17:25;1.80;;;1.70;;
7162;SDS011;3623;47.098;15.446;2022-09-01T11:19:58;2.70;;;2.50;;
7162;SDS011;3623;47.098;15.446;2022-09-01T11:22:33;2.80;;;2.60;;
7162;SDS011;3623;47.098;15.446;2022-09-01T11:25:13;2.90;;;2.80;;
7162;SDS011;3623;47.098;15.446;2022-09-01T11:36:45;3.83;;;3.57;;
7162;SDS011;3623;47.098;15.446;2022-09-01T11:39:25;3.67;;;3.20;;
7162;SDS011;3623;47.098;15.446;2022-09-01T11:42:06;3.57;;;3.37;;
7162;SDS011;3623;47.098;15.446;2022-09-01T11:44:40;3.80;;;3.60;;
7162;SDS011;3623;47.098;15.446;2022-09-01T11:47:14;4.10;;;3.80;;
7162;SDS011;3623;47.098;15.446;2022-09-01T11:49:49;3.83;;;3.53;;
7162;SDS011;3623;47.098;15.446;2022-09-01T11:52:19;3.90;;;3.60;;
7162;SDS011;3623;47.098;15.446;2022-09-01T11:54:47;4.10;;;3.80;;
7162;SDS011;3623;47.098;15.446;2022-09-01T11:57:16;4.10;;;3.90;;
7162;SDS011;3623;47.098;15.446;2022-09-01T11:59:48;4.93;;;3.50;;
7162;SDS011;3623;47.098;15.446;2022-09-01T12:02:18;4.37;;;3.07;;
7162;SDS011;3623;47.098;15.446;2022-09-01T12:04:47;2.93;;;2.73;;
7162;SDS011;3623;47.098;15.446;2022-09-01T12:07:23;4.17;;;3.00;;
7162;SDS011;3623;47.098;15.446;2022-09-01T12:10:12;3.43;;;2.43;;
7162;SDS011;3623;47.098;15.446;2022-09-01T12:12:42;2.57;;;2.33;;
7162;SDS011;3623;47.098;15.446;2022-09-01T12:15:13;2.97;;;2.70;;
7162;SDS011;3623;47.098;15.446;2022-09-01T12:17:45;3.00;;;2.73;;
7162;SDS011;3623;47.098;15.446;2022-09-01T12:20:24;4.60;;;2.63;;
7162;SDS011;3623;47.098;15.446;2022-09-01T12:22:53;2.67;;;2.57;;
7162;SDS011;3623;47.098;15.446;2022-09-01T12:25:21;3.70;;;2.63;;
7162;SDS011;3623;47.098;15.446;2022-09-01T12:27:50;2.90;;;2.70;;
7162;SDS011;3623;47.098;15.446;2022-09-01T12:30:18;2.60;;;2.50;;
7162;SDS011;3623;47.098;15.446;2022-09-01T12:32:48;3.20;;;2.90;;
7162;SDS011;3623;47.098;15.446;2022-09-01T12:35:17;2.40;;;2.30;;
7162;SDS011;3623;47.098;15.446;2022-09-01T12:37:47;4.87;;;2.80;;
7162;SDS011;3623;47.098;15.446;2022-09-01T12:40:20;4.37;;;2.87;;
7162;SDS011;3623;47.098;15.446;2022-09-01T12:42:50;2.97;;;2.77;;
7162;SDS011;3623;47.098;15.446;2022-09-01T12:51:04;3.37;;;2.93;;
7162;SDS011;3623;47.098;15.446;2022-09-01T12:53:48;2.60;;;2.40;;
7162;SDS011;3623;47.098;15.446;2022-09-01T12:56:18;2.67;;;2.47;;
7162;SDS011;3623;47.098;15.446;2022-09-01T12:58:50;2.33;;;2.23;;
7162;SDS011;3623;47.098;15.446;2022-09-01T13:01:29;2.63;;;2.43;;
7162;SDS011;3623;47.098;15.446;2022-09-01T13:04:05;3.50;;;2.80;;
7162;SDS011;3623;47.098;15.446;2022-09-01T13:06:37;3.17;;;2.83;;
7162;SDS011;3623;47.098;15.446;2022-09-01T13:09:04;2.10;;;2.00;;
7162;SDS011;3623;47.098;15.446;2022-09-01T13:11:32;4.03;;;2.30;;
7162;SDS011;3623;47.098;15.446;2022-09-01T13:13:59;2.87;;;2.60;;
7162;SDS011;3623;47.098;15.446;2022-09-01T13:16:26;3.20;;;2.20;;
7162;SDS011;3623;47.098;15.446;2022-09-01T13:18:54;2.07;;;1.97;;
7162;SDS011;3623;47.098;15.446;2022-09-01T13:21:21;2.57;;;2.37;;
7162;SDS011;3623;47.098;15.446;2022-09-01T13:23:50;2.10;;;2.00;;
7162;SDS011;3623;47.098;15.446;2022-09-01T13:26:17;2.30;;;1.90;;
7162;SDS011;3623;47.098;15.446;2022-09-01T13:28:45;2.80;;;2.50;;
7162;SDS011;3623;47.098;15.446;2022-09-01T13:31:12;3.07;;;2.60;;
7162;SDS011;3623;47.098;15.446;2022-09-01T13:33:39;2.50;;;2.30;;
7162;SDS011;3623;47.098;15.446;2022-09-01T13:36:06;2.57;;;2.47;;
7162;SDS011;3623;47.098;15.446;2022-09-01T13:38:34;2.93;;;1.90;;
7162;SDS011;3623;47.098;15.446;2022-09-01T13:41:02;2.37;;;2.17;;
7162;SDS011;3623;47.098;15.446;2022-09-01T13:43:30;2.30;;;2.20;;
7162;SDS011;3623;47.098;15.446;2022-09-01T13:45:59;2.43;;;2.23;;
7162;SDS011;3623;47.098;15.446;2022-09-01T13:48:26;4.07;;;2.73;;
7162;SDS011;3623;47.098;15.446;2022-09-01T13:50:54;2.97;;;2.73;;
7162;SDS011;3623;47.098;15.446;2022-09-01T13:53:23;3.73;;;2.40;;
7162;SDS011;3623;47.098;15.446;2022-09-01T13:55:50;2.70;;;2.57;;
7162;SDS011;3623;47.098;15.446;2022-09-01T13:58:18;2.40;;;2.23;;
7162;SDS011;3623;47.098;15.446;2022-09-01T14:00:47;2.80;;;2.50;;
7162;SDS011;3623;47.098;15.446;2022-09-01T14:03:16;3.83;;;2.37;;
7162;SDS011;3623;47.098;15.446;2022-09-01T14:05:46;2.93;;;2.60;;
7162;SDS011;3623;47.098;15.446;2022-09-01T14:08:15;2.50;;;2.30;;
7162;SDS011;3623;47.098;15.446;2022-09-01T14:10:46;2.33;;;2.23;;
7162;SDS011;3623;47.098;15.446;2022-09-01T14:13:14;3.20;;;2.03;;
7162;SDS011;3623;47.098;15.446;2022-09-01T14:15:43;3.43;;;3.13;;
7162;SDS011;3623;47.098;15.446;2022-09-01T14:18:12;3.00;;;2.20;;
7162;SDS011;3623;47.098;15.446;2022-09-01T14:20:42;2.37;;;2.17;;
7162;SDS011;3623;47.098;15.446;2022-09-01T14:23:11;3.07;;;2.97;;
7162;SDS011;3623;47.098;15.446;2022-09-01T14:25:41;2.40;;;2.30;;
7162;SDS011;3623;47.098;15.446;2022-09-01T14:28:10;2.63;;;2.43;;
7162;SDS011;3623;47.098;15.446;2022-09-01T14:30:38;4.27;;;2.90;;
7162;SDS011;3623;47.098;15.446;2022-09-01T14:33:09;2.87;;;2.70;;
7162;SDS011;3623;47.098;15.446;2022-09-01T14:35:37;2.70;;;2.50;;
7162;SDS011;3623;47.098;15.446;2022-09-01T14:38:05;5.10;;;2.77;;
7162;SDS011;3623;47.098;15.446;2022-09-01T14:40:33;2.97;;;2.77;;
7162;SDS011;3623;47.098;15.446;2022-09-01T14:43:03;2.20;;;1.90;;
7162;SDS011;3623;47.098;15.446;2022-09-01T14:45:31;2.10;;;2.00;;
7162;SDS011;3623;47.098;15.446;2022-09-01T14:47:59;2.40;;;2.23;;
7162;SDS011;3623;47.098;15.446;2022-09-01T14:50:28;1.50;;;1.40;;
7162;SDS011;3623;47.098;15.446;2022-09-01T14:52:58;1.63;;;1.57;;
7162;SDS011;3623;47.098;15.446;2022-09-01T14:55:26;2.80;;;1.60;;
7162;SDS011;3623;47.098;15.446;2022-09-01T14:57:55;3.60;;;1.60;;
7162;SDS011;3623;47.098;15.446;2022-09-01T15:00:24;1.87;;;1.77;;
7162;SDS011;3623;47.098;15.446;2022-09-01T15:02:51;1.40;;;1.30;;
7162;SDS011;3623;47.098;15.446;2022-09-01T15:05:19;1.90;;;1.80;;
7162;SDS011;3623;47.098;15.446;2022-09-01T15:07:49;1.00;;;1.00;;
7162;SDS011;3623;47.098;15.446;2022-09-01T15:10:19;1.30;;;1.20;;
7162;SDS011;3623;47.098;15.446;2022-09-01T15:12:47;1.83;;;1.73;;
7162;SDS011;3623;47.098;15.446;2022-09-01T15:15:15;1.50;;;1.40;;
7162;SDS011;3623;47.098;15.446;2022-09-01T15:17:42;1.53;;;1.43;;
7162;SDS011;3623;47.098;15.446;2022-09-01T15:20:15;1.63;;;1.50;;
7162;SDS011;3623;47.098;15.446;2022-09-01T15:23:01;1.47;;;1.37;;
7162;SDS011;3623;47.098;15.446;2022-09-01T15:25:29;1.30;;;1.30;;
7162;SDS011;3623;47.098;15.446;2022-09-01T15:27:56;2.40;;;1.17;;
7162;SDS011;3623;47.098;15.446;2022-09-01T15:30:26;1.00;;;1.00;;
7162;SDS011;3623;47.098;15.446;2022-09-01T15:32:54;1.87;;;1.77;;
7162;SDS011;3623;47.098;15.446;2022-09-01T15:35:21;2.27;;;1.90;;
7162;SDS011;3623;47.098;15.446;2022-09-01T15:37:49;1.53;;;1.37;;
7162;SDS011;3623;47.098;15.446;2022-09-01T15:40:18;1.73;;;1.63;;
7162;SDS011;3623;47.098;15.446;2022-09-01T15:42:46;1.67;;;1.10;;